FHAW

Details ICAO FHAW (ASI)
Name Ascension Wideawake Field
Region Saint Helena, Ascension and Tristan da Cunha
Timezone Atlantic/St_Helena (UTC+0.0)
Plans Departing 407
Arriving 550
Stats Elevation 277 ft / 84 m (AMSL)
Location -7.969440° -14.393900°
Runways 1
Magnetic Variation 14.716° W
Sunrise 2024-05-24 07:04:31 UTC / 2024-05-24 07:04:31 Local
Sunset 2024-05-24 18:47:17 UTC / 2024-05-24 18:47:17 Local
Advertisement - Login to hide

Runways

ID Width Length Bearing (true/mag) Surface Threshold Overrun Markings Lighting
13 148 ft / 45 m 10,024 ft / 3,055 m 116.78° / 131.49° ASPHALT 0 ft / 0 m 262 ft / 80 m UK-PREC-APP CENTERLINE EDGE THRESHOLD MALS
31 148 ft / 45 m 10,024 ft / 3,055 m 296.77° / 311.49° ASPHALT 0 ft / 0 m 495 ft / 151 m UK-PREC-APP CENTERLINE EDGE THRESHOLD

Map

Weather


0- 5 10 15 20 25 30 35+ Temperature / °C

Clouds and Precipitation
Forecast for 2024-04-15 18:00 UTC. Updated a month ago

Ground ~20,000 ft ~40,000 ft Winds

METAR

FHAW 242350Z 14015KT 9999 FEW028 26/20 Q1015 NOSIG

TAF

TAF FHAW 242224Z 2500/2518 13013KT 9999 FEW024 PROB30 TEMPO 2500/2506 15015G25KT SCT024

Frequencies

Tower 126.20 MHz Wideawake Tower
Warning: Do not use this data for real-world aviation or navigation. No guarantee of current accuracy is given.